Ashwood, Oregon
Current Conditions -  °F | °C
As of 1:55 AM on Friday 31 Oct 2014 (Local Time) from KS39 Reporting Station
Overcast Overcast  
Wind Chill: 48°   Ceiling: 3000
Heat Index: 48°   Visibility: 10mi
Dew Point: 48°   Wind: 3mph
Humidity: 100%   Direction: 230°SW
Pressure: 29.81"   Gusts: NA
Location:  44.73°N, 120.76°W
Report Text: KS39 310855Z AUTO 23003KT 10SM BKN030 OVC035 09/09 A2981 RMK AO2
Loading
Personal Weather Stations






























Interactive Weather Map
Tropical Storm Tracking
New forecast layout! Learn more

10-Day Weather Forecast

Advertisements
Track Severe Weather on mobile